createdAt,value
2022-11-04T00:01:32.906Z,3.53
2022-11-04T00:04:01.559Z,1.23
2022-11-04T00:06:29.491Z,3.08
2022-11-04T00:09:00.279Z,5.28
2022-11-04T00:11:46.680Z,2.58
2022-11-04T00:14:15.302Z,3.55
2022-11-04T00:17:01.114Z,4.68
2022-11-04T00:19:29.373Z,0.93
2022-11-04T00:22:14.903Z,1.70
2022-11-04T00:25:04.023Z,1.00
2022-11-04T00:27:49.611Z,3.05
2022-11-04T00:30:17.521Z,1.70
2022-11-04T00:33:02.951Z,0.80
2022-11-04T00:37:58.539Z,1.25
2022-11-04T00:40:27.736Z,1.60
2022-11-04T00:42:55.604Z,0.80
2022-11-04T00:45:23.504Z,3.55
2022-11-04T00:47:51.435Z,0.68
2022-11-04T00:50:19.285Z,0.82
2022-11-04T00:52:47.159Z,0.70
2022-11-04T00:55:15.093Z,0.77
2022-11-04T00:57:44.356Z,1.25
2022-11-04T01:00:13.722Z,1.15
2022-11-04T01:02:41.614Z,2.10
2022-11-04T01:05:10.502Z,0.60
2022-11-04T01:07:43.516Z,1.05
2022-11-04T01:10:12.779Z,0.88
2022-11-04T01:12:40.647Z,1.05
2022-11-04T01:15:10.934Z,1.50
2022-11-04T01:17:38.827Z,2.20
2022-11-04T01:20:07.494Z,0.82
2022-11-04T01:22:35.399Z,0.85
2022-11-04T01:25:03.276Z,1.70
2022-11-04T01:27:31.152Z,1.48
2022-11-04T01:29:59.016Z,1.08
2022-11-04T01:32:29.087Z,1.00
2022-11-04T01:34:56.963Z,1.13
2022-11-04T01:37:24.835Z,0.95
2022-11-04T01:39:52.703Z,1.20
2022-11-04T01:42:23.214Z,0.82
2022-11-04T01:44:54.692Z,1.08
2022-11-04T01:47:27.625Z,0.52
2022-11-04T01:50:00.966Z,1.08
2022-11-04T01:52:35.059Z,0.85
2022-11-04T01:55:08.256Z,0.70
2022-11-04T01:57:41.304Z,0.95
2022-11-04T02:00:10.871Z,1.02
2022-11-04T02:02:47.296Z,1.25
2022-11-04T02:05:16.929Z,1.95
2022-11-04T02:07:44.967Z,1.77
2022-11-04T02:10:13.890Z,0.55
2022-11-04T02:12:49.964Z,0.90
2022-11-04T02:15:24.528Z,0.57
2022-11-04T02:18:17.610Z,1.40
2022-11-04T02:21:13.925Z,0.63
2022-11-04T02:24:10.192Z,0.60
2022-11-04T02:27:14.014Z,1.73
2022-11-04T02:30:08.713Z,0.40
2022-11-04T02:32:50.911Z,2.20
2022-11-04T02:35:25.088Z,0.60
2022-11-04T02:37:58.626Z,0.80
2022-11-04T02:40:32.928Z,1.08
2022-11-04T02:43:04.792Z,0.68
2022-11-04T02:45:40.024Z,3.28
2022-11-04T02:48:16.916Z,1.55
2022-11-04T02:50:49.167Z,1.70
2022-11-04T02:53:23.643Z,2.10
2022-11-04T02:55:56.049Z,0.95
2022-11-04T02:58:30.003Z,1.17
2022-11-04T03:01:01.937Z,2.63
2022-11-04T03:03:34.733Z,0.80
2022-11-04T03:06:03.996Z,0.80
2022-11-04T03:08:34.514Z,0.88
2022-11-04T03:11:05.755Z,0.50
2022-11-04T03:13:37.938Z,1.05
2022-11-04T03:16:12.144Z,1.75
2022-11-04T03:18:48.835Z,3.42
2022-11-04T03:21:18.063Z,2.35
2022-11-04T03:23:46.120Z,0.40
2022-11-04T03:26:31.598Z,1.50
2022-11-04T03:29:10.450Z,1.38
2022-11-04T03:31:45.312Z,0.57
2022-11-04T03:34:13.206Z,1.08
2022-11-04T03:36:41.499Z,1.38
2022-11-04T03:39:09.382Z,0.70
2022-11-04T03:41:42.610Z,0.88
2022-11-04T03:44:10.622Z,6.10
2022-11-04T03:46:41.104Z,2.25
2022-11-04T03:49:10.295Z,1.75
2022-11-04T03:51:38.178Z,0.70
2022-11-04T03:54:07.264Z,1.17
2022-11-04T03:57:00.984Z,1.17
2022-11-04T03:59:53.706Z,0.95
2022-11-04T04:02:28.329Z,1.02
2022-11-04T04:05:00.053Z,2.05
2022-11-04T04:07:32.038Z,2.22
2022-11-04T04:10:26.880Z,0.50
2022-11-04T04:12:59.565Z,0.87
2022-11-04T04:15:32.724Z,1.10
2022-11-04T04:18:07.016Z,2.03
2022-11-04T04:20:39.207Z,0.47
2022-11-04T04:23:38.405Z,1.27
2022-11-04T04:26:26.678Z,0.70
2022-11-04T04:28:57.464Z,0.70
2022-11-04T04:31:45.671Z,2.10
2022-11-04T04:34:15.010Z,0.85
2022-11-04T04:36:47.873Z,2.38
2022-11-04T04:39:37.796Z,0.57
2022-11-04T04:42:23.939Z,1.65
2022-11-04T04:45:00.759Z,1.27
2022-11-04T04:47:34.323Z,0.98
2022-11-04T04:50:03.879Z,0.80
2022-11-04T04:52:33.924Z,0.75
2022-11-04T04:55:01.883Z,0.40
2022-11-04T04:57:29.720Z,1.23
2022-11-04T04:59:57.606Z,4.57
2022-11-04T05:02:25.740Z,1.98
2022-11-04T05:04:53.747Z,2.58
2022-11-04T05:07:23.079Z,0.85
2022-11-04T05:09:50.970Z,0.73
2022-11-04T05:12:18.990Z,0.60
2022-11-04T05:14:46.880Z,1.67
2022-11-04T05:17:15.445Z,1.25
2022-11-04T05:19:43.387Z,1.05
2022-11-04T05:22:11.268Z,0.52
2022-11-04T05:24:40.918Z,0.50
2022-11-04T05:27:08.817Z,0.85
2022-11-04T05:29:36.690Z,0.50
2022-11-04T05:32:04.737Z,0.70
2022-11-04T05:34:32.616Z,1.08
2022-11-04T05:37:00.914Z,0.60
2022-11-04T05:39:28.803Z,0.30
2022-11-04T05:41:58.695Z,0.73
2022-11-04T05:44:26.556Z,0.93
2022-11-04T05:46:54.448Z,0.80
2022-11-04T05:49:22.337Z,0.60
2022-11-04T05:51:50.256Z,0.82
2022-11-04T05:54:18.151Z,0.40
2022-11-04T05:56:46.029Z,1.02
2022-11-04T05:59:15.346Z,0.90
2022-11-04T06:01:43.945Z,1.33
2022-11-04T06:04:15.499Z,1.45
2022-11-04T06:06:43.654Z,1.20
2022-11-04T06:09:11.752Z,1.58
2022-11-04T06:11:40.270Z,1.58
2022-11-04T06:14:08.227Z,0.65
2022-11-04T06:16:37.613Z,2.85
2022-11-04T06:19:08.653Z,1.33
2022-11-04T06:21:41.174Z,1.45
2022-11-04T06:24:09.361Z,0.30
2022-11-04T06:26:39.547Z,0.73
2022-11-04T06:29:07.529Z,0.32
2022-11-04T06:31:36.830Z,1.10
2022-11-04T06:34:04.889Z,0.82
2022-11-04T06:36:32.834Z,0.40
2022-11-04T06:39:04.585Z,1.08
2022-11-04T06:41:33.122Z,2.05
2022-11-04T06:44:01.121Z,0.93
2022-11-04T06:46:32.212Z,0.75
2022-11-04T06:49:01.439Z,1.13
2022-11-04T06:51:29.454Z,0.55
2022-11-04T06:53:57.494Z,0.47
2022-11-04T06:56:25.815Z,1.75
2022-11-04T06:58:55.258Z,4.18
2022-11-04T07:01:25.162Z,2.58
2022-11-04T07:03:54.433Z,4.63
2022-11-04T07:06:23.982Z,0.60
2022-11-04T07:08:53.470Z,4.93
2022-11-04T07:11:23.399Z,2.85
2022-11-04T07:13:51.347Z,1.42
2022-11-04T07:16:20.010Z,3.03
2022-11-04T07:18:49.150Z,0.70
2022-11-04T07:21:17.026Z,7.05
2022-11-04T07:23:46.332Z,4.43
2022-11-04T07:26:14.352Z,1.27
2022-11-04T07:28:42.632Z,1.73
2022-11-04T07:31:12.897Z,1.55
2022-11-04T07:33:40.887Z,2.22
2022-11-04T07:36:13.327Z,4.57
2022-11-04T07:38:41.250Z,3.42
2022-11-04T07:41:10.526Z,5.25
2022-11-04T07:43:38.420Z,1.25
2022-11-04T07:46:08.531Z,5.50
2022-11-04T07:48:37.611Z,3.25
2022-11-04T07:51:06.550Z,1.00
2022-11-04T07:53:34.980Z,1.88
2022-11-04T07:56:05.235Z,3.67
2022-11-04T07:58:34.806Z,4.47
2022-11-04T08:01:05.312Z,1.52
2022-11-04T08:03:33.635Z,2.63
2022-11-04T08:06:03.761Z,3.17
2022-11-04T08:08:31.785Z,0.60
2022-11-04T08:11:01.728Z,1.98
2022-11-04T08:13:30.519Z,3.60
2022-11-04T08:16:02.964Z,1.17
2022-11-04T08:18:32.138Z,2.40
2022-11-04T08:21:02.380Z,5.07
2022-11-04T08:23:30.508Z,2.88
2022-11-04T08:25:59.099Z,2.60
2022-11-04T08:28:27.752Z,3.95
2022-11-04T08:30:57.204Z,0.90
2022-11-04T08:33:27.133Z,0.85
2022-11-04T08:35:55.844Z,0.95
2022-11-04T08:38:24.156Z,5.28
2022-11-04T08:40:58.592Z,1.98
2022-11-04T08:43:27.842Z,1.08
2022-11-04T08:45:56.310Z,2.97
2022-11-04T08:48:25.978Z,1.38
2022-11-04T08:50:56.323Z,0.80
2022-11-04T08:53:24.195Z,2.03
2022-11-04T08:55:52.291Z,2.00
2022-11-04T08:58:21.082Z,0.82
2022-11-04T09:00:49.462Z,1.38
2022-11-04T09:03:17.476Z,4.13
2022-11-04T09:05:49.030Z,1.50
2022-11-04T09:08:18.270Z,2.55
2022-11-04T09:10:47.519Z,1.40
2022-11-04T09:13:17.309Z,2.70
2022-11-04T09:15:45.471Z,1.80
2022-11-04T09:18:13.421Z,1.55
2022-11-04T09:20:42.094Z,1.20
2022-11-04T09:23:11.747Z,1.80
2022-11-04T09:25:39.828Z,4.38
2022-11-04T09:28:07.766Z,3.22
2022-11-04T09:30:35.695Z,0.93
2022-11-04T09:33:04.105Z,0.40
2022-11-04T09:35:31.991Z,1.45
2022-11-04T09:38:01.700Z,1.30
2022-11-04T09:40:31.209Z,0.77
2022-11-04T09:43:15.308Z,3.85
2022-11-04T09:45:44.915Z,1.10
2022-11-04T09:48:20.204Z,0.73
2022-11-04T09:50:51.445Z,0.70
2022-11-04T09:53:24.053Z,3.05
2022-11-04T09:55:57.892Z,1.42
2022-11-04T09:58:25.947Z,2.97
2022-11-04T10:01:01.341Z,1.40
2022-11-04T10:03:44.739Z,1.10
2022-11-04T10:06:28.294Z,3.72
2022-11-04T10:09:17.198Z,1.80
2022-11-04T10:11:54.683Z,3.97
2022-11-04T10:14:46.322Z,2.35
2022-11-04T10:17:29.443Z,3.47
2022-11-04T10:20:12.121Z,4.07
2022-11-04T10:22:56.662Z,7.30
2022-11-04T10:25:29.657Z,4.83
2022-11-04T10:28:00.116Z,6.38
2022-11-04T10:30:29.301Z,4.15
2022-11-04T10:33:04.220Z,7.53
2022-11-04T10:35:37.255Z,9.27
2022-11-04T10:38:19.045Z,4.38
2022-11-04T10:40:49.760Z,2.92
2022-11-04T10:43:26.110Z,3.33
2022-11-04T10:46:04.668Z,4.00
2022-11-04T10:48:41.640Z,8.82
2022-11-04T10:51:09.565Z,4.60
2022-11-04T10:53:37.700Z,0.85
2022-11-04T10:56:13.077Z,2.13
2022-11-04T10:58:46.655Z,3.08
2022-11-04T11:01:26.795Z,6.75
2022-11-04T11:03:55.378Z,2.25
2022-11-04T11:06:29.056Z,2.33
2022-11-04T11:09:00.801Z,2.88
2022-11-04T11:11:47.346Z,1.83
2022-11-04T11:14:31.613Z,1.85
2022-11-04T11:17:18.862Z,0.60
2022-11-04T11:19:51.676Z,2.05
2022-11-04T11:22:35.809Z,0.88
2022-11-04T11:25:23.078Z,2.00
2022-11-04T11:27:53.229Z,2.42
2022-11-04T11:30:26.568Z,3.13
2022-11-04T11:32:58.867Z,0.88
2022-11-04T11:35:31.656Z,1.27
2022-11-04T11:38:01.251Z,1.45
2022-11-04T11:40:34.016Z,0.52
2022-11-04T11:43:03.158Z,0.82
2022-11-04T11:45:33.648Z,1.13
2022-11-04T11:48:01.854Z,3.00
2022-11-04T11:50:35.537Z,1.55
2022-11-04T11:53:16.462Z,3.90
2022-11-04T11:55:50.839Z,9.60
2022-11-04T12:01:25.840Z,12.07
2022-11-04T12:12:24.532Z,9.00
2022-11-04T12:15:04.679Z,17.85
2022-11-04T12:17:49.112Z,5.53
2022-11-04T12:20:33.494Z,9.83
2022-11-04T12:23:11.316Z,10.13
2022-11-04T12:25:49.159Z,6.35
2022-11-04T12:28:25.827Z,24.98
2022-11-04T12:31:04.766Z,7.75
2022-11-04T12:33:40.397Z,6.70
2022-11-04T12:36:22.026Z,6.75
2022-11-04T12:39:15.501Z,5.40
2022-11-04T12:44:51.312Z,7.78
2022-11-04T12:47:31.510Z,8.30
2022-11-04T12:50:13.098Z,12.73
2022-11-04T12:53:25.863Z,7.25
2022-11-04T12:56:02.291Z,3.95
2022-11-04T12:58:40.428Z,7.05
2022-11-04T13:01:15.511Z,8.95
2022-11-04T13:03:51.737Z,9.20
2022-11-04T13:06:26.496Z,5.75
2022-11-04T13:08:59.907Z,4.82
2022-11-04T13:11:31.187Z,8.48
2022-11-04T13:14:04.660Z,5.88
2022-11-04T13:16:37.823Z,7.70
2022-11-04T13:19:09.404Z,11.90
2022-11-04T13:21:40.078Z,12.98
2022-11-04T13:24:18.378Z,11.98
2022-11-04T13:26:46.588Z,20.52
2022-11-04T13:29:21.258Z,16.88
2022-11-04T13:31:56.854Z,19.67
2022-11-04T13:34:35.376Z,17.55
2022-11-04T13:37:15.899Z,10.32
2022-11-04T13:39:47.440Z,12.52
2022-11-04T13:43:19.924Z,8.38
2022-11-04T13:45:51.491Z,15.55
2022-11-04T13:48:22.656Z,15.80
2022-11-04T13:51:00.407Z,19.13
2022-11-04T13:53:47.958Z,16.00
2022-11-04T13:56:34.138Z,13.40
2022-11-04T13:59:19.434Z,12.68
2022-11-04T14:01:47.494Z,13.73
2022-11-04T14:04:38.444Z,14.63
2022-11-04T14:07:08.524Z,15.68
2022-11-04T14:09:52.051Z,15.75
2022-11-04T14:12:33.434Z,13.20
2022-11-04T14:15:10.593Z,12.57
2022-11-04T14:18:07.836Z,17.88
2022-11-04T14:20:38.547Z,10.00
2022-11-04T14:23:08.811Z,10.75
2022-11-04T14:25:44.198Z,12.68
2022-11-04T14:28:26.807Z,10.32
2022-11-04T14:30:56.456Z,10.85
2022-11-04T14:33:42.047Z,11.40
2022-11-04T14:36:35.483Z,11.15
2022-11-04T14:39:06.973Z,5.72
2022-11-04T14:41:52.745Z,13.30
2022-11-04T14:44:25.879Z,7.55
2022-11-04T14:46:57.029Z,9.02
2022-11-04T14:49:40.425Z,8.70
2022-11-04T14:52:17.878Z,10.70
2022-11-04T14:54:46.204Z,12.18
2022-11-04T14:57:20.265Z,12.18
2022-11-04T14:59:48.916Z,9.93
2022-11-04T15:02:20.814Z,10.98
2022-11-04T15:04:52.467Z,7.78
2022-11-04T15:07:37.809Z,9.80
2022-11-04T15:12:52.324Z,14.05
2022-11-04T15:15:39.009Z,14.88
2022-11-04T15:18:09.747Z,7.53
2022-11-04T15:20:42.266Z,5.30
2022-11-04T15:23:16.409Z,8.50
2022-11-04T15:25:48.741Z,9.50
2022-11-04T15:28:24.991Z,8.55
2022-11-04T15:31:05.303Z,9.88
2022-11-04T15:33:39.846Z,13.05
2022-11-04T15:36:13.811Z,7.53
2022-11-04T15:38:45.466Z,8.40
2022-11-04T15:41:37.288Z,9.15
2022-11-04T15:44:15.179Z,7.55
2022-11-04T15:46:49.345Z,8.65
2022-11-04T15:49:24.166Z,9.83
2022-11-04T15:51:53.864Z,9.10
2022-11-04T15:54:26.757Z,8.25
2022-11-04T15:56:57.484Z,6.93
2022-11-04T15:59:29.533Z,6.00
2022-11-04T16:01:58.035Z,9.57
2022-11-04T16:04:28.241Z,7.13
2022-11-04T16:07:21.275Z,7.78
2022-11-04T16:09:50.858Z,5.80
2022-11-04T16:12:27.316Z,4.78
2022-11-04T16:14:57.921Z,12.25
2022-11-04T16:17:26.678Z,5.97
2022-11-04T16:19:56.900Z,4.28
2022-11-04T16:22:29.834Z,4.97
2022-11-04T16:24:59.094Z,5.40
2022-11-04T16:27:30.074Z,4.20
2022-11-04T16:30:09.332Z,5.88
2022-11-04T16:32:43.635Z,4.68
2022-11-04T16:35:18.192Z,5.63
2022-11-04T16:37:46.139Z,7.70
2022-11-04T16:40:14.619Z,5.00
2022-11-04T16:42:42.987Z,7.75
2022-11-04T16:45:22.835Z,8.23
2022-11-04T16:47:50.743Z,3.10
2022-11-04T16:50:19.043Z,4.18
2022-11-04T16:52:47.334Z,4.65
2022-11-04T16:55:15.826Z,5.13
2022-11-04T16:57:44.419Z,4.80
2022-11-04T17:00:20.630Z,3.78
2022-11-04T17:02:49.556Z,6.55
2022-11-04T17:05:18.194Z,6.68
2022-11-04T17:07:54.291Z,3.80
2022-11-04T17:10:26.442Z,3.72
2022-11-04T17:12:54.362Z,6.57
2022-11-04T17:15:23.705Z,4.13
2022-11-04T17:17:51.641Z,4.25
2022-11-04T17:20:20.360Z,5.68
2022-11-04T17:22:48.927Z,3.00
2022-11-04T17:25:20.115Z,4.70
2022-11-04T17:27:48.173Z,3.47
2022-11-04T17:30:17.306Z,4.03
2022-11-04T17:32:47.901Z,12.57
2022-11-04T17:35:16.988Z,6.47
2022-11-04T17:37:45.529Z,3.88
2022-11-04T17:40:16.393Z,8.13
2022-11-04T17:43:10.135Z,5.88
2022-11-04T17:45:39.666Z,7.95
2022-11-04T17:48:10.235Z,8.75
2022-11-04T17:50:41.337Z,7.60
2022-11-04T17:53:09.653Z,8.65
2022-11-04T17:55:40.348Z,4.00
2022-11-04T17:58:08.559Z,6.90
2022-11-04T18:00:36.461Z,6.18
2022-11-04T18:03:04.460Z,8.02
2022-11-04T18:05:33.697Z,3.08
2022-11-04T18:08:01.920Z,4.93
2022-11-04T18:10:29.877Z,3.45
2022-11-04T18:12:56.794Z,6.30
2022-11-04T18:15:25.311Z,4.07
2022-11-04T18:17:53.271Z,4.32
2022-11-04T18:20:21.495Z,3.70
2022-11-04T18:22:50.726Z,7.53
2022-11-04T18:25:18.989Z,9.27
2022-11-04T18:27:48.768Z,5.50
2022-11-04T18:30:16.981Z,3.65
2022-11-04T18:32:44.859Z,7.70
2022-11-04T18:35:12.725Z,6.10
2022-11-04T18:37:45.873Z,6.00
2022-11-04T18:40:16.570Z,17.17
2022-11-04T18:42:44.578Z,9.23
2022-11-04T18:45:12.771Z,2.20
2022-11-04T18:47:40.674Z,4.75
2022-11-04T18:50:09.100Z,9.73
2022-11-04T18:52:37.031Z,4.78
2022-11-04T18:55:05.379Z,5.07
2022-11-04T18:57:34.679Z,4.82
2022-11-04T19:00:02.664Z,4.32
2022-11-04T19:02:32.335Z,3.78
2022-11-04T19:05:00.418Z,4.30
2022-11-04T19:07:28.349Z,3.35
2022-11-04T19:09:56.231Z,15.35
2022-11-04T19:12:41.764Z,7.85
2022-11-04T19:15:11.808Z,5.07
2022-11-04T19:17:39.851Z,7.10
2022-11-04T19:20:12.215Z,7.40
2022-11-04T19:22:40.935Z,10.30
2022-11-04T19:25:09.527Z,5.65
2022-11-04T19:27:37.640Z,9.00
2022-11-04T19:30:06.253Z,5.25
2022-11-04T19:32:35.495Z,9.52
2022-11-04T19:35:03.384Z,2.42
2022-11-04T19:37:31.264Z,5.32
2022-11-04T19:39:59.209Z,3.63
2022-11-04T19:42:44.371Z,5.80
2022-11-04T19:45:12.272Z,6.45
2022-11-04T19:47:41.539Z,3.67
2022-11-04T19:50:09.945Z,6.30
2022-11-04T19:52:37.835Z,2.80
2022-11-04T19:55:07.175Z,9.95
2022-11-04T19:57:35.515Z,3.40
2022-11-04T20:00:03.636Z,6.13
2022-11-04T20:02:31.621Z,3.75
2022-11-04T20:05:00.939Z,4.55
2022-11-04T20:07:28.856Z,4.63
2022-11-04T20:09:57.031Z,7.65
2022-11-04T20:12:42.287Z,5.97
2022-11-04T20:15:11.079Z,4.10
2022-11-04T20:17:38.952Z,6.28
2022-11-04T20:20:08.848Z,2.72
2022-11-04T20:22:36.747Z,6.30
2022-11-04T20:25:05.119Z,6.20
2022-11-04T20:27:34.154Z,7.03
2022-11-04T20:30:02.051Z,6.05
2022-11-04T20:32:30.050Z,7.25
2022-11-04T20:34:57.964Z,2.92
2022-11-04T20:37:27.826Z,2.47
2022-11-04T20:39:55.800Z,3.42
2022-11-04T20:42:23.727Z,4.53
2022-11-04T20:44:51.667Z,4.38
2022-11-04T20:47:19.532Z,2.30
2022-11-04T20:49:47.420Z,2.67
2022-11-04T20:52:15.511Z,4.43
2022-11-04T20:54:44.753Z,6.45
2022-11-04T20:57:12.741Z,3.13
2022-11-04T20:59:40.660Z,5.03
2022-11-04T21:02:08.725Z,5.28
2022-11-04T21:04:36.870Z,4.47
2022-11-04T21:07:06.786Z,6.95
2022-11-04T21:09:34.670Z,2.05
2022-11-04T21:12:04.137Z,6.60
2022-11-04T21:14:34.669Z,5.28
2022-11-04T21:17:03.783Z,2.88
2022-11-04T21:19:31.776Z,8.80
2022-11-04T21:21:59.753Z,2.95
2022-11-04T21:24:27.651Z,6.78
2022-11-04T21:26:55.526Z,3.08
2022-11-04T21:29:24.768Z,3.95
2022-11-04T21:31:52.640Z,5.57
2022-11-04T21:34:20.503Z,3.70
2022-11-04T21:36:52.127Z,2.78
2022-11-04T21:39:20.038Z,2.80
2022-11-04T21:41:47.981Z,4.35
2022-11-04T21:44:15.862Z,1.63
2022-11-04T21:46:45.114Z,3.58
2022-11-04T21:49:14.270Z,8.13
2022-11-04T21:51:42.246Z,3.70
2022-11-04T21:54:11.445Z,3.25
2022-11-04T21:56:39.336Z,5.72
2022-11-04T21:59:07.199Z,4.07
2022-11-04T22:01:35.251Z,6.20
2022-11-04T22:04:04.855Z,4.50
2022-11-04T22:06:35.521Z,2.95
2022-11-04T22:09:05.073Z,6.55
2022-11-04T22:11:36.323Z,1.98
2022-11-04T22:14:07.317Z,6.28
2022-11-04T22:16:36.816Z,6.75
2022-11-04T22:19:07.463Z,7.95
2022-11-04T22:21:35.442Z,5.70
2022-11-04T22:24:03.341Z,5.50
2022-11-04T22:26:33.174Z,5.50
2022-11-04T22:29:01.598Z,6.40
2022-11-04T22:31:30.967Z,3.50
2022-11-04T22:33:59.563Z,3.47
2022-11-04T22:36:29.239Z,2.35
2022-11-04T22:38:57.216Z,2.53
2022-11-04T22:41:28.439Z,3.70
2022-11-04T22:43:57.098Z,1.98
2022-11-04T22:46:26.992Z,1.30
2022-11-04T22:48:55.203Z,3.05
2022-11-04T22:51:23.304Z,7.13
2022-11-04T22:53:57.702Z,2.50
2022-11-04T22:56:28.166Z,5.97
2022-11-04T22:58:56.078Z,2.05
2022-11-04T23:01:25.937Z,2.55
2022-11-04T23:03:54.416Z,1.88
2022-11-04T23:06:22.424Z,3.17
2022-11-04T23:08:59.677Z,4.13
2022-11-04T23:11:48.909Z,3.47
2022-11-04T23:14:36.791Z,5.32
2022-11-04T23:17:28.722Z,1.35
2022-11-04T23:19:56.612Z,5.68
2022-11-04T23:22:42.127Z,1.88
2022-11-04T23:25:11.069Z,3.38
2022-11-04T23:28:01.087Z,5.15
2022-11-04T23:30:31.590Z,3.78
2022-11-04T23:33:01.691Z,5.25
2022-11-04T23:35:49.421Z,2.42
2022-11-04T23:38:17.924Z,2.00
2022-11-04T23:41:06.731Z,2.35
2022-11-04T23:43:35.469Z,3.58
2022-11-04T23:46:17.844Z,2.88
2022-11-04T23:49:03.753Z,2.47
2022-11-04T23:51:50.032Z,2.20
2022-11-04T23:54:35.379Z,2.75
